createdAt,value
2022-08-14T00:00:09.336Z,12.80
2022-08-14T00:05:10.387Z,11.65
2022-08-14T00:10:50.045Z,11.15
2022-08-14T00:15:22.962Z,11.75
2022-08-14T00:20:23.648Z,11.32
2022-08-14T00:25:17.951Z,10.63
2022-08-14T00:30:17.314Z,10.77
2022-08-14T00:40:27.511Z,11.15
2022-08-14T00:45:24.722Z,11.15
2022-08-14T00:50:22.097Z,10.93
2022-08-14T00:55:17.051Z,11.57
2022-08-14T01:00:34.136Z,10.80
2022-08-14T01:05:50.625Z,11.23
2022-08-14T01:10:54.676Z,9.95
2022-08-14T01:15:58.204Z,10.48
2022-08-14T01:21:07.363Z,9.73
2022-08-14T01:26:02.828Z,9.02
2022-08-14T01:31:08.833Z,9.30
2022-08-14T01:36:05.075Z,9.15
2022-08-14T01:41:02.475Z,8.43
2022-08-14T01:46:10.476Z,7.90
2022-08-14T01:51:22.043Z,8.27
2022-08-14T01:56:21.309Z,8.53
2022-08-14T02:01:15.559Z,8.43
2022-08-14T02:06:33.079Z,8.27
2022-08-14T02:11:29.092Z,8.23
2022-08-14T02:16:29.865Z,8.50
2022-08-14T02:21:23.850Z,8.35
2022-08-14T02:26:29.778Z,8.60
2022-08-14T02:31:43.410Z,9.00
2022-08-14T02:37:04.948Z,11.82
2022-08-14T02:41:52.632Z,9.18
2022-08-14T02:47:35.353Z,9.60
2022-08-14T02:53:03.317Z,9.50
2022-08-14T02:58:05.813Z,9.30
2022-08-14T03:03:07.995Z,8.98
2022-08-14T03:08:11.362Z,8.73
2022-08-14T03:13:06.354Z,8.60
2022-08-14T03:18:11.863Z,9.75
2022-08-14T03:23:05.551Z,8.85
2022-08-14T03:28:04.034Z,9.20
2022-08-14T03:33:04.838Z,8.88
2022-08-14T03:39:12.241Z,9.10
2022-08-14T03:43:24.536Z,8.77
2022-08-14T03:48:30.269Z,9.18
2022-08-14T03:53:26.476Z,8.75
2022-08-14T03:58:23.826Z,9.13
2022-08-14T04:03:29.109Z,9.10
2022-08-14T04:08:30.659Z,9.38
2022-08-14T04:13:41.288Z,10.02
2022-08-14T04:18:42.457Z,10.07
2022-08-14T04:24:00.771Z,9.60
2022-08-14T04:29:07.042Z,10.30
2022-08-14T04:34:10.041Z,9.30
2022-08-14T04:39:28.744Z,10.38
2022-08-14T04:44:36.154Z,9.88
2022-08-14T04:49:57.057Z,10.45
2022-08-14T04:54:54.563Z,10.80
2022-08-14T05:00:06.435Z,11.18
2022-08-14T05:05:04.873Z,10.85
2022-08-14T05:10:12.645Z,9.93
2022-08-14T05:15:10.512Z,9.95
2022-08-14T05:21:54.358Z,11.23
2022-08-14T05:25:30.914Z,10.70
2022-08-14T05:30:30.994Z,9.90
2022-08-14T05:35:24.436Z,10.48
2022-08-14T05:40:19.017Z,9.80
2022-08-14T05:45:14.516Z,10.50
2022-08-14T05:50:37.830Z,11.02
2022-08-14T05:55:34.366Z,10.68
2022-08-14T06:00:40.702Z,10.52
2022-08-14T06:05:38.748Z,10.23
2022-08-14T06:10:39.446Z,10.02
2022-08-14T06:15:37.824Z,10.93
2022-08-14T06:20:38.276Z,10.13
2022-08-14T06:25:35.894Z,10.55
2022-08-14T06:30:46.302Z,10.13
2022-08-14T06:35:44.439Z,10.30
2022-08-14T06:40:44.936Z,10.73
2022-08-14T06:45:50.293Z,10.68
2022-08-14T06:50:48.769Z,10.95
2022-08-14T06:55:57.978Z,11.77
2022-08-14T07:01:12.953Z,11.45
2022-08-14T07:06:11.730Z,11.90
2022-08-14T07:11:23.812Z,11.65
2022-08-14T07:16:23.008Z,11.85
2022-08-14T07:21:20.984Z,11.02
2022-08-14T07:26:16.827Z,12.38
2022-08-14T07:31:13.162Z,12.05
2022-08-14T07:36:27.528Z,12.80
2022-08-14T07:41:35.937Z,11.90
2022-08-14T07:46:31.393Z,12.30
2022-08-14T07:51:34.365Z,11.80
2022-08-14T07:56:46.980Z,11.90
2022-08-14T08:01:51.222Z,12.60
2022-08-14T08:06:46.937Z,12.43
2022-08-14T08:11:42.326Z,11.70
2022-08-14T08:16:38.402Z,11.88
2022-08-14T08:21:35.575Z,12.02
2022-08-14T08:26:34.310Z,11.57
2022-08-14T08:36:42.041Z,11.88
2022-08-14T08:41:50.547Z,12.65
2022-08-14T08:46:48.447Z,12.50
2022-08-14T08:51:43.078Z,12.48
2022-08-14T08:56:42.904Z,12.65
2022-08-14T09:01:39.378Z,13.00
2022-08-14T09:07:09.298Z,12.32
2022-08-14T09:12:13.994Z,13.20
2022-08-14T09:17:10.609Z,12.35
2022-08-14T09:22:47.654Z,12.20
2022-08-14T09:27:22.622Z,9.65
2022-08-14T09:32:59.403Z,9.23
2022-08-14T09:37:57.608Z,7.93
2022-08-14T09:42:59.645Z,5.10
2022-08-14T09:47:57.469Z,4.93
2022-08-14T09:52:55.039Z,5.13
2022-08-14T09:57:51.992Z,5.55
2022-08-14T10:03:05.132Z,6.18
2022-08-14T10:08:03.405Z,6.68
2022-08-14T10:13:37.171Z,6.65
2022-08-14T10:18:56.048Z,6.57
2022-08-14T10:29:17.785Z,6.75
2022-08-14T10:34:29.213Z,7.05
2022-08-14T10:40:37.606Z,5.72
2022-08-14T10:45:06.592Z,6.30
2022-08-14T10:50:12.170Z,7.38
2022-08-14T10:55:14.265Z,7.40
2022-08-14T11:00:20.941Z,7.18
2022-08-14T11:05:28.448Z,6.57
2022-08-14T11:10:25.055Z,6.55
2022-08-14T11:15:25.131Z,5.93
2022-08-14T11:20:21.024Z,7.38
2022-08-14T11:25:21.352Z,7.78
2022-08-14T11:30:49.360Z,7.78
2022-08-14T11:35:44.162Z,7.95
2022-08-14T11:40:47.036Z,7.65
2022-08-14T11:46:37.827Z,7.15
2022-08-14T11:51:42.924Z,7.55
2022-08-14T11:56:52.034Z,8.40
2022-08-14T12:01:48.977Z,9.77
2022-08-14T12:06:49.990Z,8.90
2022-08-14T12:11:47.368Z,8.18
2022-08-14T12:16:47.704Z,6.82
2022-08-14T12:21:55.151Z,7.22
2022-08-14T12:26:59.073Z,7.00
2022-08-14T12:32:00.777Z,8.00
2022-08-14T12:37:43.498Z,9.02
2022-08-14T12:42:58.773Z,11.40
2022-08-14T12:48:21.135Z,11.75
2022-08-14T12:53:17.513Z,9.80
2022-08-14T12:58:28.941Z,10.30
2022-08-14T13:03:27.887Z,11.73
2022-08-14T13:08:33.651Z,11.02
2022-08-14T13:13:34.522Z,10.45
2022-08-14T13:18:35.687Z,11.13
2022-08-14T13:23:36.033Z,11.95
2022-08-14T13:28:33.955Z,13.20
2022-08-14T13:33:28.752Z,12.13
2022-08-14T13:38:23.020Z,12.13
2022-08-14T13:43:17.818Z,11.57
2022-08-14T13:48:19.132Z,11.60
2022-08-14T13:54:08.465Z,10.43
2022-08-14T13:59:04.726Z,10.65
2022-08-14T14:04:04.289Z,10.13
2022-08-14T14:09:00.509Z,11.35
2022-08-14T14:13:56.676Z,9.93
2022-08-14T14:18:52.562Z,10.73
2022-08-14T14:23:48.120Z,9.93
2022-08-14T14:28:42.965Z,10.63
2022-08-14T14:33:47.657Z,9.27
2022-08-14T14:38:45.404Z,8.15
2022-08-14T14:43:51.714Z,9.93
2022-08-14T14:48:53.813Z,9.68
2022-08-14T14:53:48.460Z,9.13
2022-08-14T14:58:48.592Z,10.07
2022-08-14T15:03:43.482Z,8.85
2022-08-14T15:08:55.656Z,9.98
2022-08-14T15:13:53.234Z,9.32
2022-08-14T15:18:49.129Z,9.10
2022-08-14T15:23:44.419Z,10.18
2022-08-14T15:28:38.443Z,10.32
2022-08-14T15:34:33.147Z,9.55
2022-08-14T15:39:08.480Z,7.25
2022-08-14T15:44:07.622Z,7.22
2022-08-14T15:49:20.946Z,11.02
2022-08-14T15:54:15.011Z,9.52
2022-08-14T15:59:13.093Z,7.95
2022-08-14T16:04:17.351Z,8.45
2022-08-14T16:09:15.991Z,7.63
2022-08-14T16:14:25.215Z,7.28
2022-08-14T16:19:25.738Z,7.35
2022-08-14T16:24:34.986Z,9.05
2022-08-14T16:29:32.744Z,9.88
2022-08-14T16:34:47.874Z,8.35
2022-08-14T16:39:48.668Z,8.63
2022-08-14T16:44:50.752Z,8.68
2022-08-14T16:50:04.256Z,8.82
2022-08-14T16:55:05.239Z,8.90
2022-08-14T17:00:44.208Z,8.80
2022-08-14T17:05:53.160Z,9.45
2022-08-14T17:11:10.202Z,9.20
2022-08-14T17:17:15.403Z,9.43
2022-08-14T17:22:22.765Z,9.90
2022-08-14T17:27:26.901Z,11.35
2022-08-14T17:32:56.603Z,11.52
2022-08-14T17:43:07.420Z,12.35
2022-08-14T17:48:01.568Z,12.90
2022-08-14T17:53:13.390Z,12.32
2022-08-14T17:58:23.374Z,12.35
2022-08-14T18:03:50.677Z,11.63
2022-08-14T18:08:55.366Z,11.90
2022-08-14T18:19:54.707Z,11.55
2022-08-14T18:25:22.685Z,12.93
2022-08-14T18:30:32.083Z,12.55
2022-08-14T18:35:59.968Z,13.60
2022-08-14T18:41:36.638Z,13.18
2022-08-14T18:47:18.524Z,13.38
2022-08-14T18:52:18.718Z,13.65
2022-08-14T18:57:20.144Z,14.18
2022-08-14T19:02:52.279Z,14.13
2022-08-14T19:08:25.289Z,14.45
2022-08-14T19:13:48.570Z,14.90
2022-08-14T19:19:00.724Z,16.10
2022-08-14T19:24:27.914Z,14.65
2022-08-14T19:34:59.790Z,14.50
2022-08-14T19:39:57.953Z,14.30
2022-08-14T19:45:02.994Z,13.93
2022-08-14T19:50:38.942Z,14.13
2022-08-14T19:55:37.883Z,13.80
2022-08-14T20:01:08.963Z,12.82
2022-08-14T20:06:13.703Z,13.07
2022-08-14T20:12:00.309Z,13.23
2022-08-14T20:17:14.074Z,13.55
2022-08-14T20:22:35.901Z,13.95
2022-08-14T20:27:59.455Z,13.90
2022-08-14T20:33:04.072Z,13.43
2022-08-14T20:38:29.888Z,13.80
2022-08-14T20:49:08.891Z,14.52
2022-08-14T20:54:12.798Z,13.77
2022-08-14T20:59:17.439Z,14.57
2022-08-14T21:04:37.224Z,13.93
2022-08-14T21:10:34.080Z,13.68
2022-08-14T21:15:32.230Z,14.35
2022-08-14T21:20:53.762Z,15.17
2022-08-14T21:25:49.353Z,15.45
2022-08-14T21:30:53.311Z,14.48
2022-08-14T21:35:55.991Z,14.55
2022-08-14T21:41:42.481Z,15.02
2022-08-14T21:46:53.420Z,15.75
2022-08-14T21:52:00.981Z,14.57
2022-08-14T21:57:17.038Z,16.40
2022-08-14T22:02:32.829Z,15.82
2022-08-14T22:07:39.936Z,15.68
2022-08-14T22:12:57.202Z,16.25
2022-08-14T22:18:08.050Z,16.90
2022-08-14T22:23:11.858Z,15.88
2022-08-14T22:28:11.790Z,14.75
2022-08-14T22:33:13.249Z,15.15
2022-08-14T22:38:35.799Z,16.08
2022-08-14T22:43:35.304Z,14.57
2022-08-14T22:48:34.461Z,14.82
2022-08-14T22:53:34.243Z,14.30
2022-08-14T22:58:34.652Z,14.35
2022-08-14T23:03:36.259Z,14.40
2022-08-14T23:09:01.946Z,14.00
2022-08-14T23:13:55.738Z,14.77
2022-08-14T23:18:56.692Z,15.35
2022-08-14T23:23:59.585Z,14.10
2022-08-14T23:29:01.380Z,14.93
2022-08-14T23:34:08.541Z,15.52
2022-08-14T23:39:19.330Z,14.50
2022-08-14T23:44:48.637Z,14.90
2022-08-14T23:56:30.193Z,14.02
